Time;durP1;ratioP1;P1;durP2;ratioP2;P2;SDS_P1;SDS_P2;PMS_P1;PMS_P2;Temp;Humidity;BMP_temperature;BMP_pressure;BME280_temperature;BME280_humidity;BME280_pressure;Samples;Min_cycle;Max_cycle;Signal;HPM_P1;HPM_P2
2023/11/22 04:00:58;;;;;;;1.85;1.63;;;11.20;99.90;;;;;;5801131;23;20458;-78
2023/11/22 04:03:24;;;;;;;3.20;2.03;;;11.20;99.90;;;;;;4968897;28;20031;-78
2023/11/22 04:05:49;;;;;;;1.88;1.50;;;11.20;99.90;;;;;;4970108;28;20011;-78
2023/11/22 04:08:15;;;;;;;2.55;1.88;;;11.20;99.90;;;;;;4967379;28;20054;-78
2023/11/22 04:10:40;;;;;;;2.47;1.55;;;11.20;99.90;;;;;;4970264;28;20086;-77
2023/11/22 04:13:06;;;;;;;2.30;1.77;;;11.20;99.90;;;;;;4969094;28;20041;-80
2023/11/22 04:15:31;;;;;;;2.08;1.58;;;11.20;99.90;;;;;;4970133;28;20174;-80
2023/11/22 04:17:57;;;;;;;2.85;1.50;;;11.20;99.90;;;;;;4970024;28;20019;-79
2023/11/22 04:20:23;;;;;;;3.50;2.00;;;11.20;99.90;;;;;;4966397;28;20030;-79
2023/11/22 04:22:48;;;;;;;3.08;1.80;;;11.20;99.90;;;;;;4970792;28;20030;-78
2023/11/22 04:25:14;;;;;;;3.47;1.90;;;11.20;99.90;;;;;;4969181;28;20536;-78
2023/11/22 04:27:40;;;;;;;5.45;1.60;;;11.20;99.90;;;;;;4970995;28;20062;-78
2023/11/22 04:30:14;;;;;;;3.25;1.77;;;11.20;99.90;;;;;;4971501;28;20022;-77
2023/11/22 04:32:41;;;;;;;4.60;1.73;;;11.20;99.90;;;;;;4970517;28;20019;-77
2023/11/22 04:35:07;;;;;;;2.65;1.98;;;11.20;99.90;;;;;;4968021;28;20027;-78
2023/11/22 04:37:33;;;;;;;2.42;1.80;;;11.20;99.90;;;;;;4966889;28;20023;-80
2023/11/22 04:40:01;;;;;;;3.08;2.08;;;11.20;99.90;;;;;;4969820;28;20475;-79
2023/11/22 04:42:26;;;;;;;4.13;2.35;;;11.20;99.90;;;;;;4970848;28;20027;-78
2023/11/22 04:44:53;;;;;;;2.95;2.13;;;11.20;99.90;;;;;;4972148;28;20022;-79
2023/11/22 04:47:19;;;;;;;3.78;2.33;;;11.20;99.90;;;;;;4970428;28;20035;-78
2023/11/22 04:49:44;;;;;;;3.13;2.42;;;11.20;99.90;;;;;;4967557;28;20041;-78
2023/11/22 04:52:10;;;;;;;3.72;2.67;;;11.20;99.90;;;;;;4971976;28;20019;-78
2023/11/22 04:54:36;;;;;;;3.45;2.53;;;11.10;99.90;;;;;;4971546;28;20023;-78
2023/11/22 04:57:01;;;;;;;11.63;3.00;;;11.20;99.90;;;;;;4970852;28;20023;-78
2023/11/22 04:59:27;;;;;;;7.63;3.00;;;11.10;99.90;;;;;;4970935;28;20034;-78
2023/11/22 05:01:53;;;;;;;5.03;3.15;;;11.10;99.90;;;;;;4967507;28;20031;-79
2023/11/22 05:04:19;;;;;;;3.78;2.47;;;11.20;99.90;;;;;;4968837;28;20089;-78
2023/11/22 05:06:45;;;;;;;4.93;3.15;;;11.10;99.90;;;;;;4971090;28;20015;-78
2023/11/22 05:09:13;;;;;;;4.32;3.20;;;11.10;99.90;;;;;;4970547;28;20114;-78
2023/11/22 05:11:38;;;;;;;6.15;3.60;;;11.10;99.90;;;;;;4967450;28;20073;-80
2023/11/22 05:14:04;;;;;;;6.13;3.45;;;11.20;99.90;;;;;;4967581;28;20106;-79
2023/11/22 05:16:29;;;;;;;4.80;3.13;;;11.20;99.90;;;;;;4968042;28;20102;-78
2023/11/22 05:18:55;;;;;;;6.03;3.97;;;11.10;99.90;;;;;;4968964;28;20392;-78
2023/11/22 05:21:20;;;;;;;6.85;3.78;;;11.10;99.90;;;;;;4970488;28;20033;-79
2023/11/22 05:23:46;;;;;;;5.00;3.40;;;11.10;99.90;;;;;;4970709;28;20026;-77
2023/11/22 05:26:12;;;;;;;5.65;3.78;;;11.10;99.90;;;;;;4966351;28;20035;-80
2023/11/22 05:28:37;;;;;;;5.13;3.65;;;11.10;99.90;;;;;;4967381;28;20089;-78
2023/11/22 05:31:03;;;;;;;6.90;4.25;;;11.10;99.90;;;;;;4971731;28;20033;-78
2023/11/22 05:33:28;;;;;;;5.72;3.90;;;11.10;99.90;;;;;;4969919;28;20034;-78
2023/11/22 05:35:54;;;;;;;6.05;4.20;;;11.10;99.90;;;;;;4972154;28;20033;-78
2023/11/22 05:38:19;;;;;;;7.22;3.95;;;11.10;99.90;;;;;;4965028;28;20061;-79
2023/11/22 05:40:45;;;;;;;7.97;4.97;;;11.10;99.90;;;;;;4970244;28;20117;-77
2023/11/22 05:43:10;;;;;;;8.27;4.65;;;11.10;99.90;;;;;;4968806;28;20564;-78
2023/11/22 05:45:36;;;;;;;8.02;4.82;;;11.10;99.90;;;;;;4969913;28;20578;-76
2023/11/22 05:48:02;;;;;;;8.70;4.80;;;11.10;99.90;;;;;;4970407;28;20022;-79
2023/11/22 05:50:27;;;;;;;7.88;4.55;;;11.10;99.90;;;;;;4968997;28;20059;-78
2023/11/22 05:52:53;;;;;;;11.63;4.78;;;11.10;99.90;;;;;;4966843;28;20019;-78
2023/11/22 05:55:18;;;;;;;8.40;4.85;;;11.10;99.90;;;;;;4968142;28;20027;-80
2023/11/22 05:57:44;;;;;;;9.40;5.38;;;11.10;99.90;;;;;;4971428;28;20026;-78
2023/11/22 06:00:10;;;;;;;8.73;5.40;;;11.10;99.90;;;;;;4970578;28;20021;-78
2023/11/22 06:02:37;;;;;;;7.90;4.68;;;11.10;99.90;;;;;;4968850;28;20034;-78
2023/11/22 06:05:03;;;;;;;6.85;4.25;;;11.10;99.90;;;;;;4971489;28;20027;-79
2023/11/22 06:07:29;;;;;;;7.95;4.88;;;11.10;99.90;;;;;;4970976;28;20510;-79
2023/11/22 06:09:54;;;;;;;7.90;4.53;;;11.10;99.90;;;;;;4970513;28;20018;-78
2023/11/22 06:12:20;;;;;;;9.63;5.03;;;11.10;99.90;;;;;;4970873;28;20039;-78
2023/11/22 06:14:46;;;;;;;8.93;5.18;;;11.10;99.90;;;;;;4968345;28;20022;-76
2023/11/22 06:17:12;;;;;;;7.50;4.57;;;11.10;99.90;;;;;;4970981;28;20023;-77
2023/11/22 06:19:38;;;;;;;11.18;5.30;;;11.10;99.90;;;;;;4962443;28;20061;-78
2023/11/22 06:22:04;;;;;;;9.57;4.72;;;11.10;99.90;;;;;;4972346;28;20049;-78
2023/11/22 06:24:29;;;;;;;8.30;4.53;;;11.10;99.90;;;;;;4973679;28;20037;-78
2023/11/22 06:26:55;;;;;;;10.40;5.40;;;11.10;99.90;;;;;;4975183;28;20027;-77
2023/11/22 06:29:21;;;;;;;10.82;4.90;;;11.10;99.90;;;;;;4968852;28;20030;-78
2023/11/22 06:31:46;;;;;;;8.65;4.85;;;11.10;99.90;;;;;;4969325;28;20023;-77
2023/11/22 06:34:12;;;;;;;7.70;4.40;;;11.10;99.90;;;;;;4973361;28;20026;-79
2023/11/22 06:36:38;;;;;;;7.57;4.68;;;11.10;99.90;;;;;;4974543;28;20074;-76
2023/11/22 06:39:05;;;;;;;6.00;4.13;;;11.00;99.90;;;;;;4973305;28;20078;-77
2023/11/22 06:41:30;;;;;;;8.48;4.60;;;11.00;99.90;;;;;;4969528;28;20121;-78
2023/11/22 06:43:56;;;;;;;9.05;4.65;;;11.10;99.90;;;;;;4972890;28;20098;-78
2023/11/22 06:46:22;;;;;;;7.68;4.68;;;11.00;99.90;;;;;;4971930;28;20089;-78
2023/11/22 06:48:49;;;;;;;10.43;4.53;;;11.00;99.90;;;;;;4973757;28;20102;-78
2023/11/22 06:51:15;;;;;;;5.85;3.97;;;11.10;99.90;;;;;;4972928;28;20025;-77
2023/11/22 06:53:41;;;;;;;10.93;4.53;;;11.10;99.90;;;;;;4967362;28;20019;-80
2023/11/22 06:56:06;;;;;;;6.72;3.55;;;11.10;99.90;;;;;;4972347;28;20022;-78
2023/11/22 06:58:32;;;;;;;6.85;3.97;;;11.10;99.90;;;;;;4970867;28;20045;-78
2023/11/22 07:00:57;;;;;;;6.72;4.43;;;11.10;99.90;;;;;;4972841;28;20039;-77
2023/11/22 07:03:23;;;;;;;6.68;3.95;;;11.10;99.90;;;;;;4969996;28;20026;-78
2023/11/22 07:05:49;;;;;;;6.43;4.40;;;11.00;99.90;;;;;;4970149;28;20015;-78
2023/11/22 07:08:17;;;;;;;6.75;3.97;;;11.10;99.90;;;;;;4963883;28;20432;-78
2023/11/22 07:10:42;;;;;;;7.22;4.00;;;11.10;99.90;;;;;;4971009;28;20022;-77
2023/11/22 07:13:08;;;;;;;4.75;3.55;;;11.10;99.90;;;;;;4971217;28;20018;-78
2023/11/22 07:15:33;;;;;;;4.13;3.25;;;11.10;99.90;;;;;;4972617;28;20121;-78
2023/11/22 07:17:59;;;;;;;9.65;4.38;;;11.00;99.90;;;;;;4966113;28;20156;-78
2023/11/22 07:20:26;;;;;;;5.10;3.60;;;11.10;99.90;;;;;;4971558;28;20038;-77
2023/11/22 07:22:55;;;;;;;4.30;2.97;;;11.00;99.90;;;;;;4972347;28;20425;-78
2023/11/22 07:25:24;;;;;;;6.47;3.47;;;11.10;99.90;;;;;;4972674;28;20026;-79
2023/11/22 07:27:51;;;;;;;3.87;2.90;;;11.10;99.90;;;;;;4969796;28;20054;-78
2023/11/22 07:30:19;;;;;;;4.05;2.90;;;11.00;99.90;;;;;;4979603;28;20262;-78
2023/11/22 07:32:44;;;;;;;4.50;3.10;;;11.10;99.90;;;;;;4970950;28;20026;-79
2023/11/22 07:35:11;;;;;;;4.57;2.80;;;11.00;99.90;;;;;;4970993;28;20396;-78
2023/11/22 07:37:42;;;;;;;3.58;2.60;;;11.10;99.90;;;;;;4971839;28;20391;-78
2023/11/22 07:40:09;;;;;;;4.32;3.00;;;11.00;99.90;;;;;;4968618;28;20035;-78
2023/11/22 07:42:36;;;;;;;4.57;2.97;;;11.00;99.90;;;;;;4967218;28;20062;-78
2023/11/22 07:45:02;;;;;;;6.25;3.15;;;11.00;99.90;;;;;;4970742;28;20105;-78
2023/11/22 07:47:28;;;;;;;3.92;2.60;;;11.10;99.90;;;;;;4970974;28;20668;-78
2023/11/22 07:49:55;;;;;;;4.40;2.50;;;11.00;99.90;;;;;;4971516;28;20051;-78
2023/11/22 07:52:21;;;;;;;4.40;2.53;;;11.00;99.90;;;;;;4972201;28;20019;-78
2023/11/22 07:54:47;;;;;;;3.88;2.80;;;11.00;99.90;;;;;;4969508;28;20104;-78
2023/11/22 07:57:13;;;;;;;3.72;2.50;;;11.00;99.90;;;;;;4971839;28;20502;-79
2023/11/22 07:59:39;;;;;;;4.22;2.63;;;11.00;99.90;;;;;;4969862;28;20078;-78
2023/11/22 08:02:11;;;;;;;4.97;2.85;;;11.00;99.90;;;;;;4971625;28;20511;-78
2023/11/22 08:04:37;;;;;;;3.92;2.58;;;11.10;99.90;;;;;;4969528;28;20018;-77
2023/11/22 08:07:03;;;;;;;3.33;2.45;;;11.10;99.90;;;;;;4970371;28;20027;-78
2023/11/22 08:09:32;;;;;;;4.45;2.63;;;11.10;99.90;;;;;;4969684;28;20034;-78
2023/11/22 08:12:03;;;;;;;3.75;2.55;;;11.00;99.90;;;;;;4970325;28;20069;-79
2023/11/22 08:14:28;;;;;;;;;;;11.10;99.90;;;;;;4972332;28;20081;-78
2023/11/22 08:16:54;;;;;;;3.55;2.78;;;11.00;99.90;;;;;;4971781;28;20307;-78
2023/11/22 08:19:23;;;;;;;4.15;2.72;;;11.00;99.90;;;;;;4971589;28;20034;-78
2023/11/22 08:21:49;;;;;;;3.10;2.50;;;11.00;99.90;;;;;;4972818;28;20034;-79
2023/11/22 08:24:14;;;;;;;5.15;2.97;;;11.00;99.90;;;;;;4972679;28;20506;-78
2023/11/22 08:26:40;;;;;;;4.03;2.60;;;11.00;99.90;;;;;;4971280;28;20029;-78
2023/11/22 08:29:07;;;;;;;3.83;2.70;;;11.00;99.90;;;;;;4970317;28;20565;-77
2023/11/22 08:31:34;;;;;;;3.80;2.45;;;11.00;99.90;;;;;;4963102;28;20117;-80
2023/11/22 08:33:59;;;;;;;2.88;2.60;;;11.00;99.90;;;;;;4969138;28;20143;-78
2023/11/22 08:36:28;;;;;;;4.63;2.63;;;11.00;99.90;;;;;;4967550;28;20034;-78
2023/11/22 08:38:55;;;;;;;3.47;2.42;;;11.00;99.90;;;;;;4969402;28;20581;-79
2023/11/22 08:41:21;;;;;;;2.67;2.10;;;11.10;99.90;;;;;;4966483;28;20376;-79
2023/11/22 08:43:48;;;;;;;4.85;2.45;;;11.10;99.90;;;;;;4965797;28;20559;-79
2023/11/22 08:46:14;;;;;;;4.82;2.40;;;11.00;99.90;;;;;;4966417;28;20090;-78
2023/11/22 08:48:41;;;;;;;3.63;2.33;;;11.10;99.90;;;;;;4969900;28;20027;-80
2023/11/22 08:51:07;;;;;;;3.03;2.45;;;11.00;99.90;;;;;;4962090;28;20503;-78
2023/11/22 08:53:33;;;;;;;4.65;2.42;;;11.10;99.90;;;;;;4970991;28;20023;-77
2023/11/22 08:55:59;;;;;;;6.35;2.72;;;11.00;99.90;;;;;;4965757;28;20029;-78
2023/11/22 08:58:25;;;;;;;3.75;2.25;;;11.00;99.90;;;;;;4966863;28;20029;-79
2023/11/22 09:00:50;;;;;;;4.28;2.60;;;11.00;99.90;;;;;;4967528;28;20031;-78
2023/11/22 09:03:18;;;;;;;4.18;2.92;;;11.00;99.90;;;;;;4970372;28;20098;-79
2023/11/22 09:05:46;;;;;;;3.20;2.60;;;11.00;99.90;;;;;;4968727;28;20038;-79
2023/11/22 09:08:14;;;;;;;5.13;3.10;;;11.00;99.90;;;;;;4962077;28;20374;-79
2023/11/22 09:10:41;;;;;;;3.53;3.00;;;11.00;99.90;;;;;;4964117;28;20038;-77
2023/11/22 09:13:07;;;;;;;4.32;3.25;;;11.00;99.90;;;;;;4969007;28;20041;-78
2023/11/22 09:15:33;;;;;;;3.35;2.78;;;11.00;99.90;;;;;;4970087;28;20031;-78
2023/11/22 09:17:59;;;;;;;7.25;2.80;;;11.00;99.90;;;;;;4972146;28;20050;-81
2023/11/22 09:20:25;;;;;;;3.60;2.90;;;11.00;99.90;;;;;;4967853;28;20536;-81
2023/11/22 09:22:54;;;;;;;3.40;2.70;;;11.00;99.90;;;;;;4970890;28;20084;-81
2023/11/22 09:25:21;;;;;;;3.55;2.55;;;11.00;99.90;;;;;;4967887;28;20050;-80
2023/11/22 09:27:48;;;;;;;2.65;2.08;;;11.00;99.90;;;;;;4970317;28;20111;-78
2023/11/22 09:30:32;;;;;;;2.28;1.58;;;11.60;99.90;;;;;;4970578;28;20027;-78
2023/11/22 09:33:07;;;;;;;3.00;2.20;;;13.50;99.90;;;;;;4962125;28;20094;-79
2023/11/22 09:35:33;;;;;;;2.15;1.83;;;12.40;99.90;;;;;;4966807;28;20451;-78
2023/11/22 09:38:00;;;;;;;2.90;1.90;;;11.80;99.90;;;;;;4971353;28;20027;-78
2023/11/22 09:40:31;;;;;;;2.38;1.90;;;11.40;99.90;;;;;;4969882;28;20042;-79
2023/11/22 09:42:57;;;;;;;3.17;2.20;;;11.30;99.90;;;;;;4972088;28;20497;-78
2023/11/22 09:45:25;;;;;;;5.20;2.33;;;11.10;99.90;;;;;;4969884;28;20127;-78
2023/11/22 09:47:50;;;;;;;3.88;2.58;;;11.10;99.90;;;;;;4967146;28;20110;-77
2023/11/22 09:50:25;;;;;;;3.63;2.47;;;11.00;99.90;;;;;;4973501;28;20400;-78
2023/11/22 09:52:55;;;;;;;3.90;2.75;;;11.10;99.90;;;;;;4970689;28;20022;-78
2023/11/22 09:55:25;;;;;;;5.32;2.95;;;11.10;99.90;;;;;;4972548;28;20057;-77
2023/11/22 09:57:52;;;;;;;3.55;3.05;;;11.00;99.90;;;;;;4972293;28;20110;-78
2023/11/22 10:00:21;;;;;;;3.63;2.70;;;11.00;99.90;;;;;;4970209;28;20054;-80
2023/11/22 10:02:47;;;;;;;5.97;2.60;;;11.00;99.90;;;;;;4970280;28;20384;-79
2023/11/22 10:05:13;;;;;;;4.10;2.70;;;11.00;99.90;;;;;;4970660;28;20041;-79
2023/11/22 10:07:39;;;;;;;3.60;2.78;;;11.00;99.90;;;;;;4971086;28;20035;-79
2023/11/22 10:10:06;;;;;;;3.55;2.67;;;11.00;99.90;;;;;;4968590;28;20024;-76
2023/11/22 10:12:34;;;;;;;3.22;2.47;;;11.00;99.90;;;;;;4970774;28;20115;-78
2023/11/22 10:15:13;;;;;;;5.00;2.78;;;10.90;99.90;;;;;;4968904;28;20484;-78
2023/11/22 10:17:39;;;;;;;5.40;2.70;;;11.00;99.90;;;;;;4972130;28;20086;-78
2023/11/22 10:20:10;;;;;;;4.25;3.00;;;11.00;99.90;;;;;;4970987;28;20055;-76
2023/11/22 10:22:45;;;;;;;4.05;2.72;;;11.00;99.90;;;;;;4966257;28;20077;-78
2023/11/22 10:25:12;;;;;;;3.55;2.63;;;11.00;99.90;;;;;;4969539;28;20019;-78
2023/11/22 10:27:39;;;;;;;5.55;3.40;;;11.00;99.90;;;;;;4966573;28;20125;-79
2023/11/22 10:30:05;;;;;;;5.32;3.55;;;11.00;99.90;;;;;;4971264;28;20132;-79
2023/11/22 10:32:30;;;;;;;5.38;3.70;;;11.00;99.90;;;;;;4969557;28;20388;-79
2023/11/22 10:34:56;;;;;;;6.07;3.22;;;11.00;99.90;;;;;;4966422;28;20027;-77
2023/11/22 10:37:24;;;;;;;3.47;2.85;;;10.90;99.90;;;;;;4968786;28;20605;-77
2023/11/22 10:39:53;;;;;;;4.85;3.35;;;11.00;99.90;;;;;;4968877;28;20094;-78
2023/11/22 10:42:19;;;;;;;5.47;3.50;;;11.00;99.90;;;;;;4959358;28;20456;-77
2023/11/22 10:44:47;;;;;;;5.53;3.75;;;10.90;99.90;;;;;;4971752;28;20183;-77
2023/11/22 10:47:19;;;;;;;5.43;3.60;;;10.90;99.90;;;;;;4966681;28;20023;-78
2023/11/22 10:49:44;;;;;;;6.20;3.72;;;10.90;99.90;;;;;;4969276;28;20058;-79
2023/11/22 10:52:13;;;;;;;4.95;3.47;;;10.90;99.90;;;;;;4970997;28;20043;-79
2023/11/22 10:54:44;;;;;;;2.30;1.40;;;10.90;99.90;;;;;;4971049;28;20030;-73
2023/11/22 10:57:13;;;;;;;1.90;1.45;;;13.30;99.90;;;;;;4969071;28;20046;-80
2023/11/22 10:59:43;;;;;;;4.00;1.92;;;14.20;99.90;;;;;;4970386;28;20027;-78
2023/11/22 11:02:12;;;;;;;;;;;13.40;99.90;;;;;;4966151;28;20031;-78
2023/11/22 11:04:51;;;;;;;5.57;2.05;;;12.40;99.90;;;;;;4966320;28;19953;-78
2023/11/22 11:07:22;;;;;;;4.90;2.80;;;11.80;99.90;;;;;;4968683;28;20499;-77
2023/11/22 11:09:50;;;;;;;5.10;2.85;;;11.50;99.90;;;;;;4967547;28;20097;-79
2023/11/22 11:12:17;;;;;;;4.85;3.00;;;11.30;99.90;;;;;;4963070;28;20015;-78
2023/11/22 11:14:46;;;;;;;5.43;3.70;;;11.30;99.90;;;;;;4966876;28;20027;-78
2023/11/22 11:17:14;;;;;;;4.60;3.00;;;11.20;99.90;;;;;;4964938;28;20023;-78
2023/11/22 11:19:41;;;;;;;5.00;3.35;;;11.10;99.90;;;;;;4973583;28;20037;-76
2023/11/22 11:22:10;;;;;;;5.63;3.55;;;11.10;99.90;;;;;;4972544;28;20019;-76
2023/11/22 11:24:40;;;;;;;4.82;3.78;;;11.00;99.90;;;;;;4966356;28;20038;-78
2023/11/22 11:27:10;;;;;;;4.57;3.25;;;11.10;99.90;;;;;;4974286;28;20545;-79
2023/11/22 11:29:40;;;;;;;6.70;4.13;;;11.00;99.90;;;;;;4974371;28;20029;-75
2023/11/22 11:32:10;;;;;;;7.30;3.95;;;11.00;99.90;;;;;;4965805;28;20038;-78
2023/11/22 11:34:52;;;;;;;5.05;4.13;;;11.00;99.90;;;;;;4970033;28;20023;-78
2023/11/22 11:37:19;;;;;;;7.32;4.35;;;11.00;99.90;;;;;;4968686;28;20137;-76
2023/11/22 11:39:45;;;;;;;8.18;4.90;;;10.90;99.90;;;;;;4971876;28;20491;-78
2023/11/22 11:42:13;;;;;;;5.63;3.92;;;11.00;99.90;;;;;;4974019;28;20033;-77
2023/11/22 11:45:11;;;;;;;7.82;3.92;;;11.00;99.90;;;;;;4970682;28;20077;-77
2023/11/22 11:47:36;;;;;;;8.65;4.35;;;11.00;99.90;;;;;;4971274;28;20051;-78
2023/11/22 11:50:04;;;;;;;5.15;3.80;;;11.00;99.90;;;;;;4962922;28;20472;-78
2023/11/22 11:52:31;;;;;;;6.03;4.28;;;11.00;99.90;;;;;;4967662;28;20034;-78
2023/11/22 11:54:57;;;;;;;5.50;3.70;;;11.00;99.90;;;;;;4970220;28;20027;-78
2023/11/22 11:57:23;;;;;;;7.13;4.18;;;11.00;99.90;;;;;;4970500;28;20033;-78
2023/11/22 11:59:49;;;;;;;7.28;4.32;;;11.00;99.90;;;;;;4973787;28;20427;-76
2023/11/22 12:02:16;;;;;;;5.95;4.07;;;11.00;99.90;;;;;;4969089;28;20085;-78
2023/11/22 12:04:43;;;;;;;6.05;3.80;;;11.00;99.90;;;;;;4968192;28;20019;-79
2023/11/22 12:07:12;;;;;;;7.50;4.95;;;10.90;99.90;;;;;;4968074;28;20019;-78
2023/11/22 12:09:37;;;;;;;5.47;3.90;;;10.90;99.90;;;;;;4971931;28;20089;-78
2023/11/22 12:12:03;;;;;;;5.78;3.90;;;10.90;99.90;;;;;;4977465;28;20031;-78
2023/11/22 12:14:29;;;;;;;7.13;4.35;;;10.90;99.90;;;;;;4968785;28;20480;-77
2023/11/22 12:16:54;;;;;;;6.25;3.85;;;10.90;99.90;;;;;;4971200;28;20027;-78
2023/11/22 12:19:24;;;;;;;4.78;4.05;;;11.00;99.90;;;;;;4982949;28;20031;-78
2023/11/22 12:21:50;;;;;;;5.95;3.92;;;11.00;99.90;;;;;;4963988;28;20553;-77
2023/11/22 12:24:16;;;;;;;5.97;4.38;;;10.90;99.90;;;;;;4975228;28;20023;-77
2023/11/22 12:26:49;;;;;;;8.40;4.47;;;10.90;99.90;;;;;;4969413;28;20555;-78
2023/11/22 12:29:18;;;;;;;8.00;4.38;;;10.90;99.90;;;;;;4975746;28;20023;-78
2023/11/22 12:31:50;;;;;;;7.20;4.38;;;10.90;99.90;;;;;;4970307;28;20117;-78
2023/11/22 12:34:17;;;;;;;8.30;4.93;;;10.90;99.90;;;;;;4966723;28;20026;-78
2023/11/22 12:36:42;;;;;;;6.22;4.43;;;10.90;99.90;;;;;;4970957;28;20715;-77
2023/11/22 12:39:16;;;;;;;8.02;4.00;;;10.90;99.90;;;;;;4967649;28;20027;-77
2023/11/22 12:41:52;;;;;;;6.47;4.07;;;10.90;99.90;;;;;;4968148;28;20026;-78
2023/11/22 12:44:18;;;;;;;6.95;4.18;;;10.90;99.90;;;;;;4969935;28;20026;-78
2023/11/22 12:46:49;;;;;;;5.10;4.00;;;10.90;99.90;;;;;;4966323;28;20062;-78
2023/11/22 12:49:18;;;;;;;5.82;4.53;;;10.90;99.90;;;;;;4967445;28;20015;-78
2023/11/22 12:51:52;;;;;;;5.82;3.97;;;10.90;99.90;;;;;;4966999;28;20034;-78
2023/11/22 12:54:21;;;;;;;8.75;4.88;;;10.90;99.90;;;;;;4968217;28;20480;-78
2023/11/22 12:56:49;;;;;;;7.90;4.10;;;10.90;99.90;;;;;;4969251;28;20415;-78
2023/11/22 12:59:14;;;;;;;6.13;4.30;;;10.90;99.90;;;;;;4971166;28;20050;-78
2023/11/22 13:01:40;;;;;;;6.00;4.10;;;10.90;99.90;;;;;;4969397;28;20121;-79
2023/11/22 13:04:06;;;;;;;9.75;4.65;;;10.90;99.90;;;;;;4964216;28;20031;-78
2023/11/22 13:06:31;;;;;;;10.05;4.97;;;10.90;99.90;;;;;;4970006;28;20093;-77
2023/11/22 13:08:57;;;;;;;10.38;4.25;;;10.90;99.90;;;;;;4971732;28;20503;-78
2023/11/22 13:11:24;;;;;;;5.15;3.83;;;10.90;99.90;;;;;;4970435;28;20031;-78
2023/11/22 13:13:50;;;;;;;7.53;4.47;;;10.90;99.90;;;;;;4968971;28;20022;-78
2023/11/22 13:16:18;;;;;;;6.90;4.70;;;10.90;99.90;;;;;;4970350;28;20015;-78
2023/11/22 13:18:44;;;;;;;7.72;4.72;;;10.90;99.90;;;;;;4972494;28;20117;-79
2023/11/22 13:21:10;;;;;;;7.07;4.60;;;10.90;99.90;;;;;;4974648;28;20106;-78
2023/11/22 13:23:36;;;;;;;5.80;4.57;;;10.90;99.90;;;;;;4971587;28;20456;-78
2023/11/22 13:26:02;;;;;;;7.03;4.43;;;10.90;99.90;;;;;;4971600;28;20098;-76
2023/11/22 13:28:27;;;;;;;7.25;4.78;;;10.90;99.90;;;;;;4974885;28;20026;-78
2023/11/22 13:30:53;;;;;;;6.35;4.57;;;10.90;99.90;;;;;;4971635;28;20479;-76
2023/11/22 13:33:19;;;;;;;6.68;4.10;;;10.90;99.90;;;;;;4969967;28;20387;-78
2023/11/22 13:35:45;;;;;;;7.30;4.63;;;10.90;99.90;;;;;;4968976;28;20027;-78
2023/11/22 13:38:11;;;;;;;5.68;4.07;;;10.90;99.90;;;;;;4971930;28;20022;-76
2023/11/22 13:40:41;;;;;;;6.75;3.67;;;10.90;99.90;;;;;;4970678;28;20038;-78
2023/11/22 13:43:09;;;;;;;10.45;4.22;;;10.90;99.90;;;;;;4973666;28;20019;-77
2023/11/22 13:45:39;;;;;;;6.82;4.28;;;10.90;99.90;;;;;;4972122;28;20142;-78
2023/11/22 13:48:08;;;;;;;6.47;4.07;;;10.90;99.90;;;;;;4967608;28;20369;-77
2023/11/22 13:50:34;;;;;;;6.53;4.53;;;10.90;99.90;;;;;;4971518;28;20077;-77
2023/11/22 13:53:00;;;;;;;6.70;3.95;;;10.90;99.90;;;;;;4972296;28;20015;-79
2023/11/22 13:55:25;;;;;;;6.85;4.32;;;10.80;99.90;;;;;;4969845;28;20027;-78
2023/11/22 13:57:59;;;;;;;10.73;4.38;;;10.80;99.90;;;;;;4970354;28;20029;-78
2023/11/22 14:00:33;;;;;;;6.78;4.88;;;10.80;99.90;;;;;;4970628;28;20046;-78
2023/11/22 14:03:05;;;;;;;6.18;4.00;;;10.80;99.90;;;;;;4968082;28;20029;-78
2023/11/22 14:05:33;;;;;;;6.40;4.50;;;10.90;99.90;;;;;;4965110;28;20026;-78
2023/11/22 14:07:58;;;;;;;8.43;4.47;;;10.90;99.90;;;;;;4967441;28;20031;-78
2023/11/22 14:10:24;;;;;;;6.97;4.63;;;10.90;99.90;;;;;;4969698;28;20045;-79
2023/11/22 14:12:50;;;;;;;5.72;4.40;;;10.90;99.90;;;;;;4970020;28;20079;-78
2023/11/22 14:15:16;;;;;;;6.43;4.65;;;10.90;99.90;;;;;;4972140;28;20021;-78
2023/11/22 14:17:42;;;;;;;7.72;4.45;;;10.90;99.90;;;;;;4970532;28;20113;-78
2023/11/22 14:20:11;;;;;;;8.23;4.43;;;10.80;99.90;;;;;;4972152;28;20015;-78
2023/11/22 14:22:37;;;;;;;8.60;4.68;;;10.80;99.90;;;;;;4970252;28;20026;-78
2023/11/22 14:25:03;;;;;;;9.32;4.18;;;10.90;99.90;;;;;;4973474;28;20019;-78
2023/11/22 14:27:30;;;;;;;9.88;4.50;;;10.80;99.90;;;;;;4970204;28;20113;-79
2023/11/22 14:29:56;;;;;;;6.78;4.03;;;10.80;99.90;;;;;;4973905;28;20034;-80
2023/11/22 14:32:22;;;;;;;5.97;4.25;;;10.80;99.90;;;;;;4975229;28;20027;-79
2023/11/22 14:34:48;;;;;;;6.22;4.18;;;10.80;99.90;;;;;;4972893;28;20399;-79
2023/11/22 14:37:13;;;;;;;8.35;5.20;;;10.80;99.90;;;;;;4972876;28;20022;-79
2023/11/22 14:39:39;;;;;;;10.75;5.00;;;10.80;99.90;;;;;;4973255;28;20471;-78
2023/11/22 14:42:06;;;;;;;7.82;4.97;;;10.80;99.90;;;;;;4973108;28;20019;-79
2023/11/22 14:44:33;;;;;;;8.18;4.57;;;10.80;99.90;;;;;;4972416;28;20253;-79
2023/11/22 14:46:59;;;;;;;6.53;4.28;;;10.80;99.90;;;;;;4974071;28;20042;-79
2023/11/22 14:49:25;;;;;;;8.43;5.68;;;10.80;99.90;;;;;;4972750;28;20023;-79
2023/11/22 14:51:51;;;;;;;8.75;5.13;;;10.80;99.90;;;;;;4972543;28;20045;-79
2023/11/22 14:54:16;;;;;;;9.10;5.25;;;10.80;99.90;;;;;;4974841;28;21442;-79
2023/11/22 14:56:43;;;;;;;9.25;4.60;;;10.80;99.90;;;;;;4973849;28;20046;-78
2023/11/22 14:59:08;;;;;;;11.13;5.13;;;10.80;99.90;;;;;;4973327;28;20030;-80
2023/11/22 15:01:33;;;;;;;6.25;3.75;;;10.80;99.90;;;;;;4972261;28;20104;-78
2023/11/22 15:03:59;;;;;;;7.53;4.43;;;10.80;99.90;;;;;;4973218;28;20522;-79
2023/11/22 15:06:25;;;;;;;9.65;4.38;;;10.80;99.90;;;;;;4972807;28;20034;-79
2023/11/22 15:08:53;;;;;;;6.25;4.43;;;10.80;99.90;;;;;;4976076;28;20484;-79
2023/11/22 15:11:18;;;;;;;5.82;4.28;;;10.80;99.90;;;;;;4972921;28;20037;-79
2023/11/22 15:13:47;;;;;;;12.77;5.03;;;10.80;99.90;;;;;;4972696;28;20019;-78
2023/11/22 15:16:14;;;;;;;7.43;5.10;;;10.80;99.90;;;;;;4972435;28;20154;-78
2023/11/22 15:18:40;;;;;;;9.63;4.50;;;10.80;99.90;;;;;;4977003;28;20238;-79
2023/11/22 15:21:06;;;;;;;9.77;4.93;;;10.80;99.90;;;;;;4971216;28;20114;-79
2023/11/22 15:23:32;;;;;;;6.40;4.47;;;10.80;99.90;;;;;;4973722;28;20030;-79
2023/11/22 15:25:59;;;;;;;8.50;5.38;;;10.80;99.90;;;;;;4973459;28;20484;-79
2023/11/22 15:28:25;;;;;;;8.73;5.20;;;10.80;99.90;;;;;;4970463;28;20066;-77
2023/11/22 15:30:58;;;;;;;8.20;4.82;;;10.80;99.90;;;;;;4972541;28;20093;-79
2023/11/22 15:33:24;;;;;;;8.82;5.20;;;10.80;99.90;;;;;;4974304;28;20027;-78
2023/11/22 15:35:50;;;;;;;9.00;4.40;;;10.80;99.90;;;;;;4970593;28;20047;-80
2023/11/22 15:38:15;;;;;;;8.52;4.95;;;10.80;99.90;;;;;;4972461;28;20144;-78
2023/11/22 15:40:42;;;;;;;9.15;4.70;;;10.80;99.90;;;;;;4971487;28;20031;-78
2023/11/22 15:43:08;;;;;;;8.40;4.93;;;10.80;99.90;;;;;;4970745;28;20030;-77
2023/11/22 15:45:35;;;;;;;9.85;5.10;;;10.80;99.90;;;;;;4970405;28;20031;-77
2023/11/22 15:48:01;;;;;;;7.40;4.70;;;11.10;99.90;;;;;;4971743;28;20408;-78
2023/11/22 15:50:27;;;;;;;10.90;5.25;;;11.00;99.90;;;;;;4972575;28;20542;-74
2023/11/22 15:52:53;;;;;;;9.98;5.13;;;10.90;99.90;;;;;;4971913;28;20224;-78
2023/11/22 15:55:18;;;;;;;14.00;5.47;;;10.90;99.90;;;;;;4973016;28;20015;-79
2023/11/22 15:57:44;;;;;;;7.38;4.80;;;10.80;99.90;;;;;;4975123;28;20019;-78
2023/11/22 16:00:10;;;;;;;8.23;4.90;;;10.80;99.90;;;;;;4974329;28;20022;-79
2023/11/22 16:02:37;;;;;;;11.85;6.40;;;10.80;99.90;;;;;;4972735;28;20110;-78
2023/11/22 16:05:03;;;;;;;8.77;5.18;;;10.80;99.90;;;;;;4976149;28;20046;-81
2023/11/22 16:07:29;;;;;;;10.45;6.72;;;10.80;99.90;;;;;;4972162;28;20019;-78
2023/11/22 16:09:54;;;;;;;8.40;5.60;;;10.80;99.90;;;;;;4974996;28;20023;-78
2023/11/22 16:12:21;;;;;;;13.20;6.22;;;10.80;99.90;;;;;;4971591;28;20568;-78
2023/11/22 16:14:48;;;;;;;9.02;5.50;;;10.80;99.90;;;;;;4968030;28;20015;-77
2023/11/22 16:17:15;;;;;;;7.60;5.28;;;10.80;99.90;;;;;;4973643;28;20058;-79
2023/11/22 16:19:41;;;;;;;7.45;5.07;;;10.80;99.90;;;;;;4971937;28;20551;-78
2023/11/22 16:22:06;;;;;;;7.10;4.93;;;10.70;99.90;;;;;;4971685;28;20075;-78
2023/11/22 16:24:32;;;;;;;9.50;5.78;;;10.80;99.90;;;;;;4969977;28;20030;-79
2023/11/22 16:26:59;;;;;;;9.38;5.15;;;10.80;99.90;;;;;;4971464;28;20026;-77
2023/11/22 16:29:25;;;;;;;7.95;5.43;;;10.70;99.90;;;;;;4970974;28;20118;-78
2023/11/22 16:31:50;;;;;;;12.65;5.68;;;10.80;99.90;;;;;;4971730;28;20142;-78
2023/11/22 16:34:16;;;;;;;9.30;4.97;;;10.80;99.90;;;;;;4971539;28;20476;-78
2023/11/22 16:36:42;;;;;;;10.43;6.05;;;10.80;99.90;;;;;;4973590;28;20030;-77
2023/11/22 16:39:08;;;;;;;10.90;5.63;;;10.80;99.90;;;;;;4967920;28;20019;-77
2023/11/22 16:41:34;;;;;;;10.13;5.93;;;10.70;99.90;;;;;;4971478;28;20022;-78
2023/11/22 16:44:00;;;;;;;11.73;5.70;;;10.70;99.90;;;;;;4973999;28;20042;-78